Accueil
METAR-TAF:

METAR-TAF

Aéroports :

Aéroport de Pérouse-Sant'Egidio

Pérouse, Italie

latitude: 43-05N, longitude: 012-30E, altitude: 208 m

Observation

Le bulletin a été fait il y a 4 heures et 37 minutes, à 20:50 UTC
Vent 7 kt de nord/nord-est
Température 14°C
Humidité 88%
Pression 1014 hPa
Visibilité 10 km ou plus
Nuages fragmentés à une hauteur de 5000 ft

METAR: LIRZ 202050Z 02007KT 9999 BKN050 14/12 Q1014

Heure: 03:27 (01:27 UTC)

Prévision

Le bulletin a été fait il y a 8 heures et 27 minutes, à 17:00 UTC
Prévision valable du 20 à 18 UTC au 21 à 18 UTC
Vent 7 kt de nord/nord-est
Visibilité 10 km ou plus
Nuages épars à une hauteur de 3000 ft
Temporairement
du 21 à 11 UTC au 21 à 18 UTC
Visibilité: 4000 m
orage, pluie

TAF: LIRZ 201700Z 2018/2118 02007KT 9999 SCT030 TEMPO 2111/2118 4000 TSRA

Observations et prévisions météorologiques de plus de 4000 aéroports (messages METAR et TAF).

Les stations disponibles sont représentées par des disques jaunes et rouges sur la carte.

Passer la souris dessus pour voir le nom de la station.

Cliquer dessus pour voir les observations et prévisions météorologiques.

Pour changer de carte: cliquez sur les boutons verts avec une croix noire pour zoomer, sur le bouton vert avec un tiret pour effectuer un zoom arrière, ou sur les flèches vertes pour les cartes adjacentes.


METAR-TAF: